createdAt,value
2018-01-22T00:00:28.004Z,0.00
2018-01-22T00:01:28.040Z,0.00
2018-01-22T00:02:28.082Z,0.00
2018-01-22T00:03:28.126Z,0.00
2018-01-22T00:04:28.174Z,0.00
2018-01-22T00:05:28.203Z,0.00
2018-01-22T00:06:28.243Z,0.00
2018-01-22T00:07:28.283Z,0.00
2018-01-22T00:08:28.330Z,0.00
2018-01-22T00:09:28.378Z,0.00
2018-01-22T00:10:28.400Z,0.00
2018-01-22T00:11:28.462Z,0.00
2018-01-22T00:12:28.483Z,0.00
2018-01-22T00:13:28.521Z,0.00
2018-01-22T00:14:28.563Z,0.00
2018-01-22T00:15:28.605Z,0.00
2018-01-22T00:16:28.658Z,0.00
2018-01-22T00:17:28.681Z,0.00
2018-01-22T00:18:28.723Z,0.00
2018-01-22T00:19:28.786Z,0.00
2018-01-22T00:20:28.806Z,0.00
2018-01-22T00:21:28.842Z,0.00
2018-01-22T00:22:28.886Z,0.00
2018-01-22T00:23:28.924Z,0.00
2018-01-22T00:24:28.983Z,0.00
2018-01-22T00:25:29.004Z,0.00
2018-01-22T00:26:29.044Z,0.00
2018-01-22T00:27:29.091Z,0.00
2018-01-22T00:28:29.126Z,0.00
2018-01-22T00:29:29.180Z,0.00
2018-01-22T00:30:29.222Z,0.00
2018-01-22T00:31:29.246Z,0.00
2018-01-22T00:32:29.295Z,0.00
2018-01-22T00:33:29.328Z,0.00
2018-01-22T00:34:29.383Z,0.00
2018-01-22T00:35:29.426Z,0.00
2018-01-22T00:36:29.448Z,0.00
2018-01-22T00:37:29.490Z,0.00
2018-01-22T00:38:29.529Z,0.00
2018-01-22T00:39:29.570Z,0.00
2018-01-22T00:40:30.509Z,0.00
2018-01-22T00:41:29.650Z,0.00
2018-01-22T00:42:29.690Z,0.00
2018-01-22T00:43:29.730Z,0.00
2018-01-22T00:44:29.772Z,0.00
2018-01-22T00:45:29.831Z,0.00
2018-01-22T00:46:29.868Z,0.00
2018-01-22T00:47:29.891Z,0.00
2018-01-22T00:48:29.932Z,0.00
2018-01-22T00:49:29.972Z,0.00
2018-01-22T00:50:30.012Z,0.00
2018-01-22T00:51:30.138Z,0.00
2018-01-22T00:52:30.093Z,0.00
2018-01-22T00:53:30.135Z,0.00
2018-01-22T00:54:30.173Z,0.00
2018-01-22T00:55:30.215Z,0.00
2018-01-22T00:56:30.280Z,0.00
2018-01-22T00:57:30.297Z,0.00
2018-01-22T00:58:30.340Z,0.00
2018-01-22T00:59:30.375Z,0.00
2018-01-22T01:00:30.420Z,0.00
2018-01-22T01:01:30.490Z,0.00
2018-01-22T01:02:30.496Z,0.00
2018-01-22T01:03:30.539Z,0.00
2018-01-22T01:04:30.581Z,0.00
2018-01-22T01:05:30.619Z,0.00
2018-01-22T01:06:30.674Z,0.00
2018-01-22T01:07:30.716Z,0.00
2018-01-22T01:08:30.738Z,0.00
2018-01-22T01:09:30.778Z,0.00
2018-01-22T01:10:30.821Z,0.00
2018-01-22T01:11:30.860Z,0.00
2018-01-22T01:12:30.934Z,0.00
2018-01-22T01:13:30.939Z,0.00
2018-01-22T01:14:30.985Z,0.00
2018-01-22T01:15:31.021Z,0.00
2018-01-22T01:16:31.064Z,0.00
2018-01-22T01:17:31.118Z,0.00
2018-01-22T01:18:31.143Z,0.00
2018-01-22T01:19:31.186Z,0.00
2018-01-22T01:20:31.225Z,0.00
2018-01-22T01:21:31.261Z,0.00
2018-01-22T01:22:31.343Z,0.00
2018-01-22T01:23:31.361Z,0.00
2018-01-22T01:24:31.389Z,0.00
2018-01-22T01:25:31.425Z,0.00
2018-01-22T01:26:31.477Z,0.00
2018-01-22T01:27:31.523Z,0.00
2018-01-22T01:28:31.546Z,0.00
2018-01-22T01:29:31.603Z,0.00
2018-01-22T01:30:31.627Z,0.00
2018-01-22T01:31:31.667Z,0.00
2018-01-22T01:32:31.709Z,0.00
2018-01-22T01:33:31.748Z,0.00
2018-01-22T01:34:31.807Z,0.00
2018-01-22T01:35:31.831Z,0.00
2018-01-22T01:36:31.870Z,0.00
2018-01-22T01:37:31.911Z,0.00
2018-01-22T01:38:31.964Z,0.00
2018-01-22T01:39:32.006Z,0.00
2018-01-22T01:40:32.047Z,0.00
2018-01-22T01:41:32.071Z,0.00
2018-01-22T01:42:32.111Z,0.00
2018-01-22T01:43:32.152Z,0.00
2018-01-22T01:44:32.214Z,0.00
2018-01-22T01:45:32.252Z,0.00
2018-01-22T01:46:32.272Z,0.00
2018-01-22T01:47:32.319Z,0.00
2018-01-22T01:48:32.354Z,0.00
2018-01-22T01:49:32.398Z,0.00
2018-01-22T01:50:32.453Z,0.00
2018-01-22T01:51:32.478Z,0.00
2018-01-22T01:52:32.517Z,0.00
2018-01-22T01:53:32.558Z,0.00
2018-01-22T01:54:32.596Z,0.00
2018-01-22T01:55:32.652Z,0.00
2018-01-22T01:56:32.690Z,0.00
2018-01-22T01:57:32.717Z,0.00
2018-01-22T01:58:32.757Z,0.00
2018-01-22T01:59:32.814Z,0.00
2018-01-22T02:00:32.838Z,0.00
2018-01-22T02:01:32.880Z,0.00
2018-01-22T02:02:32.922Z,0.00
2018-01-22T02:03:32.966Z,0.00
2018-01-22T02:04:33.017Z,0.00
2018-01-22T02:05:33.040Z,0.00
2018-01-22T02:06:33.085Z,0.00
2018-01-22T02:07:33.121Z,0.00
2018-01-22T02:08:33.163Z,0.00
2018-01-22T02:09:33.218Z,0.00
2018-01-22T02:10:33.276Z,0.00
2018-01-22T02:11:33.285Z,0.00
2018-01-22T02:12:33.326Z,0.00
2018-01-22T02:13:33.364Z,0.00
2018-01-22T02:14:33.405Z,0.00
2018-01-22T02:15:33.460Z,0.00
2018-01-22T02:16:33.487Z,0.00
2018-01-22T02:17:33.527Z,0.00
2018-01-22T02:18:33.569Z,0.00
2018-01-22T02:19:33.608Z,0.00
2018-01-22T02:20:33.684Z,0.00
2018-01-22T02:21:33.691Z,0.00
2018-01-22T02:22:33.728Z,0.00
2018-01-22T02:23:33.770Z,0.00
2018-01-22T02:24:33.812Z,0.00
2018-01-22T02:25:33.869Z,0.00
2018-01-22T02:26:33.895Z,0.00
2018-01-22T02:27:33.933Z,0.00
2018-01-22T02:28:33.973Z,0.00
2018-01-22T02:29:34.013Z,0.00
2018-01-22T02:30:34.074Z,0.00
2018-01-22T02:31:34.095Z,0.00
2018-01-22T02:32:34.152Z,0.00
2018-01-22T02:33:34.177Z,0.00
2018-01-22T02:34:34.219Z,0.00
2018-01-22T02:35:34.258Z,0.00
2018-01-22T02:36:34.322Z,0.00
2018-01-22T02:37:34.342Z,0.00
2018-01-22T02:38:34.380Z,0.00
2018-01-22T02:39:34.422Z,0.00
2018-01-22T02:40:34.460Z,0.00
2018-01-22T02:41:34.537Z,0.00
2018-01-22T02:42:34.541Z,0.00
2018-01-22T02:43:34.584Z,0.00
2018-01-22T02:44:41.499Z,0.00
2018-01-22T02:45:34.664Z,0.00
2018-01-22T02:46:34.721Z,0.00
2018-01-22T02:47:34.745Z,0.00
2018-01-22T02:48:34.786Z,0.00
2018-01-22T02:49:34.846Z,0.00
2018-01-22T02:50:34.870Z,0.00
2018-01-22T02:51:34.908Z,0.00
2018-01-22T02:52:34.968Z,0.00
2018-01-22T02:53:34.989Z,0.00
2018-01-22T02:54:35.030Z,0.00
2018-01-22T02:55:35.073Z,0.00
2018-01-22T02:56:35.113Z,0.00
2018-01-22T02:57:35.179Z,0.00
2018-01-22T02:58:35.190Z,0.00
2018-01-22T02:59:35.240Z,0.00
2018-01-22T03:00:35.310Z,0.00
2018-01-22T03:01:35.318Z,0.00
2018-01-22T03:02:35.373Z,0.00
2018-01-22T03:03:35.414Z,0.00
2018-01-22T03:04:35.440Z,0.00
2018-01-22T03:05:35.479Z,0.00
2018-01-22T03:06:35.518Z,0.00
2018-01-22T03:07:35.574Z,0.00
2018-01-22T03:08:35.607Z,0.00
2018-01-22T03:09:35.640Z,0.00
2018-01-22T03:10:35.684Z,0.00
2018-01-22T03:11:35.722Z,0.00
2018-01-22T03:12:35.780Z,0.00
2018-01-22T03:13:35.809Z,0.00
2018-01-22T03:14:35.844Z,0.00
2018-01-22T03:15:35.892Z,0.00
2018-01-22T03:16:35.930Z,0.00
2018-01-22T03:17:35.982Z,0.00
2018-01-22T03:18:36.008Z,0.00
2018-01-22T03:19:36.060Z,0.00
2018-01-22T03:20:36.089Z,0.00
2018-01-22T03:21:36.129Z,0.00
2018-01-22T03:22:36.171Z,0.00
2018-01-22T03:23:36.226Z,0.00
2018-01-22T03:24:36.255Z,0.00
2018-01-22T03:25:36.310Z,0.00
2018-01-22T03:26:36.335Z,0.00
2018-01-22T03:27:36.373Z,0.00
2018-01-22T03:28:36.436Z,0.00
2018-01-22T03:29:36.453Z,0.00
2018-01-22T03:30:36.495Z,0.00
2018-01-22T03:31:36.536Z,0.00
2018-01-22T03:32:36.577Z,0.00
2018-01-22T03:33:36.635Z,0.00
2018-01-22T03:34:36.658Z,0.00
2018-01-22T03:35:36.702Z,0.00
2018-01-22T03:36:36.758Z,0.00
2018-01-22T03:37:36.782Z,0.00
2018-01-22T03:38:36.822Z,0.00
2018-01-22T03:39:36.864Z,0.00
2018-01-22T03:40:36.921Z,0.00
2018-01-22T03:41:36.963Z,0.00
2018-01-22T03:42:36.986Z,0.00
2018-01-22T03:43:37.027Z,0.00
2018-01-22T03:44:37.069Z,0.00
2018-01-22T03:45:37.107Z,0.00
2018-01-22T03:46:37.166Z,0.00
2018-01-22T03:47:37.190Z,0.00
2018-01-22T03:48:37.232Z,0.00
2018-01-22T03:49:37.288Z,0.00
2018-01-22T03:50:37.313Z,0.00
2018-01-22T03:51:37.369Z,0.00
2018-01-22T03:52:37.398Z,0.00
2018-01-22T03:53:37.435Z,0.00
2018-01-22T03:54:37.478Z,0.00
2018-01-22T03:55:37.518Z,0.00
2018-01-22T03:56:37.574Z,0.00
2018-01-22T03:57:37.600Z,0.00
2018-01-22T03:58:37.644Z,0.00
2018-01-22T03:59:37.684Z,0.00
2018-01-22T04:00:37.725Z,0.00
2018-01-22T04:01:37.784Z,0.00
2018-01-22T04:02:37.803Z,0.00
2018-01-22T04:03:37.851Z,0.00
2018-01-22T04:04:37.910Z,0.00
2018-01-22T04:05:37.928Z,0.00
2018-01-22T04:06:37.983Z,0.00
2018-01-22T04:07:38.010Z,0.00
2018-01-22T04:08:38.053Z,0.00
2018-01-22T04:09:38.090Z,0.00
2018-01-22T04:10:38.132Z,0.00
2018-01-22T04:11:38.193Z,0.00
2018-01-22T04:12:38.217Z,0.00
2018-01-22T04:13:38.258Z,0.00
2018-01-22T04:14:38.297Z,0.00
2018-01-22T04:15:38.337Z,0.00
2018-01-22T04:16:38.395Z,0.00
2018-01-22T04:17:38.422Z,0.00
2018-01-22T04:18:38.460Z,0.00
2018-01-22T04:19:38.502Z,0.00
2018-01-22T04:20:38.556Z,0.00
2018-01-22T04:21:38.601Z,0.00
2018-01-22T04:22:38.626Z,0.00
2018-01-22T04:23:38.667Z,0.00
2018-01-22T04:24:38.707Z,0.00
2018-01-22T04:25:38.747Z,0.00
2018-01-22T04:26:38.814Z,0.00
2018-01-22T04:27:38.831Z,0.00
2018-01-22T04:28:38.880Z,0.00
2018-01-22T04:29:38.918Z,0.00
2018-01-22T04:30:38.953Z,0.00
2018-01-22T04:31:39.017Z,0.00
2018-01-22T04:32:39.036Z,0.00
2018-01-22T04:33:39.079Z,0.00
2018-01-22T04:34:39.119Z,0.00
2018-01-22T04:35:39.159Z,0.00
2018-01-22T04:36:39.224Z,0.00
2018-01-22T04:37:39.243Z,0.00
2018-01-22T04:38:39.283Z,0.00
2018-01-22T04:39:39.326Z,0.00
2018-01-22T04:40:39.372Z,0.00
2018-01-22T04:41:39.422Z,0.00
2018-01-22T04:42:39.447Z,0.00
2018-01-22T04:43:39.488Z,0.00
2018-01-22T04:44:39.532Z,0.00
2018-01-22T04:45:39.577Z,0.00
2018-01-22T04:46:39.634Z,0.00
2018-01-22T04:47:39.654Z,0.00
2018-01-22T04:48:39.695Z,0.00
2018-01-22T04:49:39.763Z,0.00
2018-01-22T04:50:39.779Z,0.00
2018-01-22T04:51:39.817Z,0.00
2018-01-22T04:52:39.882Z,0.00
2018-01-22T04:53:39.917Z,0.00
2018-01-22T04:54:39.941Z,0.00
2018-01-22T04:55:40.007Z,0.00
2018-01-22T04:56:40.025Z,0.00
2018-01-22T04:57:40.064Z,0.00
2018-01-22T04:58:40.127Z,0.00
2018-01-22T04:59:40.148Z,0.00
2018-01-22T05:00:40.191Z,0.00
2018-01-22T05:01:40.234Z,0.00
2018-01-22T05:02:40.271Z,0.00
2018-01-22T05:03:40.331Z,0.00
2018-01-22T05:04:40.355Z,0.00
2018-01-22T05:05:40.401Z,0.00
2018-01-22T05:06:40.453Z,0.00
2018-01-22T05:07:40.491Z,0.00
2018-01-22T05:08:40.520Z,0.00
2018-01-22T05:09:40.562Z,0.00
2018-01-22T05:10:40.603Z,0.00
2018-01-22T05:11:40.677Z,0.00
2018-01-22T05:12:40.685Z,0.00
2018-01-22T05:13:40.725Z,0.00
2018-01-22T05:14:40.770Z,0.00
2018-01-22T05:15:40.808Z,0.00
2018-01-22T05:16:40.885Z,0.00
2018-01-22T05:17:40.891Z,0.00
2018-01-22T05:18:40.937Z,0.00
2018-01-22T05:19:40.979Z,0.00
2018-01-22T05:20:41.016Z,0.00
2018-01-22T05:21:41.074Z,0.00
2018-01-22T05:22:41.100Z,0.00
2018-01-22T05:23:41.142Z,0.00
2018-01-22T05:24:41.183Z,0.00
2018-01-22T05:25:41.224Z,0.00
2018-01-22T05:26:41.281Z,0.00
2018-01-22T05:27:41.310Z,0.00
2018-01-22T05:28:41.350Z,0.00
2018-01-22T05:29:41.389Z,0.00
2018-01-22T05:30:41.433Z,0.00
2018-01-22T05:31:41.508Z,0.00
2018-01-22T05:32:41.519Z,0.00
2018-01-22T05:33:41.556Z,0.00
2018-01-22T05:34:41.597Z,0.00
2018-01-22T05:35:41.639Z,0.00
2018-01-22T05:36:41.701Z,0.00
2018-01-22T05:37:41.721Z,0.00
2018-01-22T05:38:41.765Z,0.00
2018-01-22T05:39:41.808Z,0.00
2018-01-22T05:40:41.847Z,0.00
2018-01-22T05:41:41.908Z,0.00
2018-01-22T05:42:41.933Z,0.00
2018-01-22T05:43:41.979Z,0.00
2018-01-22T05:44:42.014Z,0.00
2018-01-22T05:45:42.054Z,0.00
2018-01-22T05:46:42.131Z,0.00
2018-01-22T05:47:42.138Z,0.00
2018-01-22T05:48:42.183Z,0.00
2018-01-22T05:49:42.225Z,0.00
2018-01-22T05:50:42.267Z,0.00
2018-01-22T05:51:42.341Z,0.00
2018-01-22T05:52:42.348Z,0.00
2018-01-22T05:53:42.388Z,0.00
2018-01-22T05:54:42.431Z,0.00
2018-01-22T05:55:42.517Z,0.00
2018-01-22T05:56:42.546Z,0.00
2018-01-22T05:57:42.555Z,0.00
2018-01-22T05:58:42.600Z,0.00
2018-01-22T05:59:42.641Z,0.00
2018-01-22T06:00:42.693Z,0.00
2018-01-22T06:01:42.758Z,0.00
2018-01-22T06:02:42.765Z,0.00
2018-01-22T06:03:42.809Z,0.00
2018-01-22T06:04:42.851Z,0.00
2018-01-22T06:05:42.891Z,0.00
2018-01-22T06:06:42.949Z,0.00
2018-01-22T06:07:42.990Z,0.00
2018-01-22T06:08:43.017Z,0.00
2018-01-22T06:09:43.059Z,0.00
2018-01-22T06:10:43.109Z,0.00
2018-01-22T06:11:43.145Z,0.00
2018-01-22T06:12:43.261Z,0.00
2018-01-22T06:13:43.227Z,0.00
2018-01-22T06:14:43.277Z,0.00
2018-01-22T06:15:43.311Z,0.00
2018-01-22T06:16:43.363Z,0.00
2018-01-22T06:17:43.410Z,0.00
2018-01-22T06:18:43.453Z,0.00
2018-01-22T06:19:43.481Z,0.00
2018-01-22T06:20:43.521Z,0.00
2018-01-22T06:21:43.587Z,0.00
2018-01-22T06:22:43.607Z,0.00
2018-01-22T06:23:43.663Z,0.00
2018-01-22T06:24:43.689Z,0.00
2018-01-22T06:25:43.730Z,0.00
2018-01-22T06:26:43.773Z,0.00
2018-01-22T06:27:43.821Z,0.00
2018-01-22T06:28:43.877Z,0.00
2018-01-22T06:29:43.900Z,0.00
2018-01-22T06:30:43.945Z,0.00
2018-01-22T06:31:43.983Z,0.00
2018-01-22T06:32:44.028Z,0.00
2018-01-22T06:33:44.085Z,0.00
2018-01-22T06:34:44.110Z,4.00
2018-01-22T06:35:44.152Z,4.00
2018-01-22T06:36:44.192Z,4.00
2018-01-22T06:37:44.237Z,4.00
2018-01-22T06:38:44.300Z,4.00
2018-01-22T06:39:44.321Z,8.00
2018-01-22T06:40:44.364Z,4.00
2018-01-22T06:41:44.405Z,8.00
2018-01-22T06:42:44.448Z,8.00
2018-01-22T06:43:44.509Z,12.00
2018-01-22T06:44:44.554Z,12.00
2018-01-22T06:45:44.575Z,16.00
2018-01-22T06:46:44.618Z,16.00
2018-01-22T06:47:44.659Z,16.00
2018-01-22T06:48:44.702Z,20.00
2018-01-22T06:49:44.761Z,20.00
2018-01-22T06:50:44.788Z,24.00
2018-01-22T06:51:44.830Z,28.00
2018-01-22T06:52:44.921Z,32.00
2018-01-22T06:53:44.914Z,36.00
2018-01-22T06:54:44.990Z,40.00
2018-01-22T06:55:45.000Z,40.00
2018-01-22T06:56:45.055Z,44.00
2018-01-22T06:57:45.083Z,52.00
2018-01-22T06:58:45.123Z,56.00
2018-01-22T06:59:45.206Z,60.00
2018-01-22T07:00:45.208Z,64.00
2018-01-22T07:01:45.250Z,72.00
2018-01-22T07:02:45.295Z,80.00
2018-01-22T07:03:45.336Z,80.00
2018-01-22T07:04:45.412Z,88.00
2018-01-22T07:05:45.423Z,100.00
2018-01-22T07:06:45.462Z,108.00
2018-01-22T07:07:45.504Z,120.00
2018-01-22T07:08:45.550Z,116.00
2018-01-22T07:09:45.610Z,128.00
2018-01-22T07:10:45.651Z,144.00
2018-01-22T07:11:45.679Z,156.00
2018-01-22T07:12:45.721Z,160.00
2018-01-22T07:13:45.760Z,176.00
2018-01-22T07:14:45.801Z,184.00
2018-01-22T07:15:45.856Z,196.00
2018-01-22T07:16:45.885Z,216.00
2018-01-22T07:17:45.935Z,236.00
2018-01-22T07:18:45.974Z,248.00
2018-01-22T07:19:46.012Z,248.00
2018-01-22T07:20:46.073Z,280.00
2018-01-22T07:21:46.097Z,316.00
2018-01-22T07:22:46.141Z,308.00
2018-01-22T07:23:46.179Z,324.00
2018-01-22T07:24:46.227Z,336.00
2018-01-22T07:25:46.509Z,360.00
2018-01-22T07:26:46.328Z,368.00
2018-01-22T07:27:46.357Z,392.00
2018-01-22T07:28:46.401Z,428.00
2018-01-22T07:29:46.440Z,500.00
2018-01-22T07:30:46.495Z,532.00
2018-01-22T07:31:46.538Z,544.00
2018-01-22T07:32:46.565Z,556.00
2018-01-22T07:33:46.607Z,604.00
2018-01-22T07:34:46.656Z,608.00
2018-01-22T07:35:46.693Z,676.00
2018-01-22T07:36:46.756Z,676.00
2018-01-22T07:37:46.776Z,704.00
2018-01-22T07:38:46.819Z,688.00
2018-01-22T07:39:46.862Z,684.00
2018-01-22T07:40:46.904Z,716.00
2018-01-22T07:41:46.964Z,728.00
2018-01-22T07:42:47.026Z,832.00
2018-01-22T07:43:47.034Z,892.00
2018-01-22T07:44:47.085Z,884.00
2018-01-22T07:45:47.116Z,868.00
2018-01-22T07:46:47.161Z,876.00
2018-01-22T07:47:47.226Z,948.00
2018-01-22T07:48:47.243Z,1064.00
2018-01-22T07:49:47.285Z,1064.00
2018-01-22T07:50:47.330Z,1020.00
2018-01-22T07:51:47.377Z,1040.00
2018-01-22T07:52:47.430Z,1048.00
2018-01-22T07:53:47.473Z,1032.00
2018-01-22T07:54:47.504Z,1012.00
2018-01-22T07:55:47.541Z,1028.00
2018-01-22T07:56:47.591Z,1060.00
2018-01-22T07:57:47.627Z,1056.00
2018-01-22T07:58:47.685Z,1012.00
2018-01-22T07:59:47.711Z,1080.00
2018-01-22T08:00:47.753Z,1128.00
2018-01-22T08:01:47.796Z,1128.00
2018-01-22T08:02:47.838Z,1184.00
2018-01-22T08:03:47.897Z,1216.00
2018-01-22T08:04:47.963Z,1232.00
2018-01-22T08:05:47.965Z,1296.00
2018-01-22T08:06:48.007Z,1300.00
2018-01-22T08:07:48.055Z,1332.00
2018-01-22T08:08:48.098Z,1380.00
2018-01-22T08:09:48.152Z,1360.00
2018-01-22T08:10:48.189Z,1280.00
2018-01-22T08:11:48.240Z,1256.00
2018-01-22T08:12:48.264Z,1188.00
2018-01-22T08:13:48.307Z,1228.00
2018-01-22T08:14:48.368Z,1332.00
2018-01-22T08:15:48.412Z,1444.00
2018-01-22T08:16:48.435Z,1592.00
2018-01-22T08:17:48.483Z,1808.00
2018-01-22T08:18:48.520Z,2120.00
2018-01-22T08:19:48.560Z,2260.00
2018-01-22T08:20:48.621Z,2232.00
2018-01-22T08:21:48.648Z,2224.00
2018-01-22T08:22:48.692Z,2372.00
2018-01-22T08:23:48.732Z,2308.00
2018-01-22T08:24:48.774Z,2612.00
2018-01-22T08:25:48.832Z,2540.00
2018-01-22T08:26:48.859Z,2708.00
2018-01-22T08:27:48.903Z,2692.00
2018-01-22T08:28:48.948Z,2648.00
2018-01-22T08:29:48.990Z,2596.00
2018-01-22T08:30:49.056Z,2616.00
2018-01-22T08:31:49.076Z,2704.00
2018-01-22T08:32:49.119Z,2620.00
2018-01-22T08:33:49.158Z,2992.00
2018-01-22T08:34:49.202Z,3100.00
2018-01-22T08:35:49.263Z,3128.00
2018-01-22T08:36:49.289Z,3148.00
2018-01-22T08:37:49.350Z,3052.00
2018-01-22T08:38:49.376Z,2688.00
2018-01-22T08:39:49.415Z,2392.00
2018-01-22T08:40:49.461Z,2156.00
2018-01-22T08:41:49.504Z,1932.00
2018-01-22T08:42:49.561Z,2096.00
2018-01-22T08:43:49.586Z,2208.00
2018-01-22T08:44:49.631Z,2104.00
2018-01-22T08:45:49.673Z,2220.00
2018-01-22T08:46:49.732Z,2284.00
2018-01-22T08:47:49.760Z,1952.00
2018-01-22T08:48:49.820Z,1800.00
2018-01-22T08:49:49.849Z,1812.00
2018-01-22T08:50:49.890Z,1876.00
2018-01-22T08:51:49.929Z,1904.00
2018-01-22T08:52:49.973Z,1816.00
2018-01-22T08:53:50.032Z,1848.00
2018-01-22T08:54:50.060Z,2028.00
2018-01-22T08:55:50.102Z,2140.00
2018-01-22T08:56:50.157Z,2188.00
2018-01-22T08:57:50.188Z,2472.00
2018-01-22T08:58:50.276Z,2484.00
2018-01-22T08:59:50.274Z,2584.00
2018-01-22T09:00:50.325Z,2768.00
2018-01-22T09:01:50.368Z,2692.00
2018-01-22T09:02:50.403Z,2460.00
2018-01-22T09:03:50.480Z,2280.00
2018-01-22T09:04:50.494Z,2616.00
2018-01-22T09:05:50.532Z,3092.00
2018-01-22T09:06:50.574Z,3272.00
2018-01-22T09:07:50.618Z,3316.00
2018-01-22T09:08:50.682Z,3504.00
2018-01-22T09:09:50.704Z,3284.00
2018-01-22T09:10:50.762Z,2724.00
2018-01-22T09:11:50.796Z,2284.00
2018-01-22T09:12:50.836Z,2060.00
2018-01-22T09:13:50.876Z,2044.00
2018-01-22T09:14:50.920Z,2056.00
2018-01-22T09:15:50.977Z,2264.00
2018-01-22T09:16:51.007Z,2688.00
2018-01-22T09:17:51.051Z,2996.00
2018-01-22T09:18:51.091Z,2796.00
2018-01-22T09:19:51.152Z,2452.00
2018-01-22T09:20:51.184Z,2448.00
2018-01-22T09:21:51.226Z,2516.00
2018-01-22T09:22:51.269Z,2656.00
2018-01-22T09:23:51.308Z,2860.00
2018-01-22T09:24:51.367Z,2984.00
2018-01-22T09:25:51.394Z,3012.00
2018-01-22T09:26:51.443Z,2788.00
2018-01-22T09:27:51.483Z,2792.00
2018-01-22T09:28:51.525Z,2552.00
2018-01-22T09:29:51.590Z,2432.00
2018-01-22T09:30:51.613Z,2100.00
2018-01-22T09:31:51.662Z,1852.00
2018-01-22T09:32:51.715Z,1884.00
2018-01-22T09:33:51.743Z,2064.00
2018-01-22T09:34:51.816Z,2304.00
2018-01-22T09:35:51.827Z,2376.00
2018-01-22T09:36:51.872Z,2700.00
2018-01-22T09:37:51.913Z,2828.00
2018-01-22T09:38:51.957Z,2972.00
2018-01-22T09:39:52.018Z,2952.00
2018-01-22T09:40:52.044Z,2956.00
2018-01-22T09:41:52.085Z,2940.00
2018-01-22T09:42:52.131Z,2840.00
2018-01-22T09:43:52.196Z,3228.00
2018-01-22T09:44:52.219Z,3532.00
2018-01-22T09:45:52.260Z,3680.00
2018-01-22T09:46:52.304Z,3840.00
2018-01-22T09:47:52.345Z,3552.00
2018-01-22T09:48:52.411Z,3448.00
2018-01-22T09:49:52.435Z,3232.00
2018-01-22T09:50:52.481Z,2980.00
2018-01-22T09:51:52.524Z,2944.00
2018-01-22T09:52:52.564Z,2776.00
2018-01-22T09:53:52.627Z,2672.00
2018-01-22T09:54:52.649Z,2752.00
2018-01-22T09:55:52.695Z,2688.00
2018-01-22T09:56:52.737Z,2568.00
2018-01-22T09:57:52.778Z,2472.00
2018-01-22T09:58:52.846Z,2648.00
2018-01-22T09:59:52.866Z,2500.00
2018-01-22T10:00:52.914Z,2356.00
2018-01-22T10:01:52.956Z,2112.00
2018-01-22T10:02:53.004Z,1804.00
2018-01-22T10:03:53.054Z,1792.00
2018-01-22T10:04:53.098Z,1856.00
2018-01-22T10:05:53.127Z,1816.00
2018-01-22T10:06:53.173Z,1816.00
2018-01-22T10:07:53.677Z,1864.00
2018-01-22T10:08:53.256Z,1872.00
2018-01-22T10:09:53.316Z,1832.00
2018-01-22T10:10:53.343Z,2092.00
2018-01-22T10:11:53.390Z,1876.00
2018-01-22T10:12:53.430Z,1840.00
2018-01-22T10:13:53.474Z,1632.00
2018-01-22T10:14:53.531Z,1792.00
2018-01-22T10:15:53.566Z,1912.00
2018-01-22T10:16:53.601Z,1720.00
2018-01-22T10:17:53.645Z,1684.00
2018-01-22T10:18:53.688Z,2016.00
2018-01-22T10:19:53.749Z,2412.00
2018-01-22T10:20:53.775Z,2776.00
2018-01-22T10:21:53.818Z,3012.00
2018-01-22T10:22:53.861Z,3024.00
2018-01-22T10:23:53.906Z,3172.00
2018-01-22T10:24:53.981Z,2960.00
2018-01-22T10:25:53.990Z,2716.00
2018-01-22T10:26:54.034Z,2484.00
2018-01-22T10:27:54.079Z,2124.00
2018-01-22T10:28:54.122Z,2144.00
2018-01-22T10:29:54.196Z,1940.00
2018-01-22T10:30:54.208Z,2108.00
2018-01-22T10:31:54.251Z,1988.00
2018-01-22T10:32:54.297Z,1772.00
2018-01-22T10:33:54.337Z,1640.00
2018-01-22T10:34:54.396Z,1472.00
2018-01-22T10:35:54.427Z,1460.00
2018-01-22T10:36:54.471Z,1672.00
2018-01-22T10:37:54.512Z,1768.00
2018-01-22T10:38:54.554Z,1868.00
2018-01-22T10:39:54.616Z,1860.00
2018-01-22T10:40:54.676Z,1820.00
2018-01-22T10:41:54.685Z,1892.00
2018-01-22T10:42:54.727Z,1840.00
2018-01-22T10:43:54.773Z,1804.00
2018-01-22T10:44:54.815Z,1876.00
2018-01-22T10:45:54.890Z,2004.00
2018-01-22T10:46:54.914Z,2184.00
2018-01-22T10:47:54.952Z,2148.00
2018-01-22T10:48:54.998Z,2316.00
2018-01-22T10:49:55.032Z,2492.00
2018-01-22T10:50:55.115Z,2392.00
2018-01-22T10:51:55.125Z,2252.00
2018-01-22T10:52:55.163Z,2232.00
2018-01-22T10:53:55.206Z,2124.00
2018-01-22T10:54:55.250Z,2072.00
2018-01-22T10:55:55.314Z,2016.00
2018-01-22T10:56:55.357Z,2024.00
2018-01-22T10:57:55.380Z,2084.00
2018-01-22T10:58:55.426Z,2076.00
2018-01-22T10:59:55.471Z,2120.00
2018-01-22T11:00:55.511Z,2092.00
2018-01-22T11:01:55.574Z,2128.00
2018-01-22T11:02:55.599Z,2160.00
2018-01-22T11:03:55.643Z,2216.00
2018-01-22T11:04:55.691Z,2116.00
2018-01-22T11:05:55.732Z,2108.00
2018-01-22T11:06:55.814Z,2140.00
2018-01-22T11:07:55.819Z,2112.00
2018-01-22T11:08:55.862Z,2116.00
2018-01-22T11:09:55.909Z,2116.00
2018-01-22T11:10:55.997Z,2120.00
2018-01-22T11:11:56.028Z,2092.00
2018-01-22T11:12:56.042Z,2092.00
2018-01-22T11:13:56.082Z,2168.00
2018-01-22T11:14:56.126Z,2288.00
2018-01-22T11:15:56.176Z,2332.00
2018-01-22T11:16:56.247Z,2376.00
2018-01-22T11:17:56.263Z,2420.00
2018-01-22T11:18:56.307Z,2484.00
2018-01-22T11:19:56.348Z,2468.00
2018-01-22T11:20:56.394Z,2520.00
2018-01-22T11:21:56.451Z,2556.00
2018-01-22T11:22:56.483Z,2784.00
2018-01-22T11:23:56.541Z,3032.00
2018-01-22T11:24:56.572Z,3136.00
2018-01-22T11:25:56.614Z,3032.00
2018-01-22T11:26:56.662Z,3100.00
2018-01-22T11:27:56.703Z,3408.00
2018-01-22T11:28:56.762Z,3668.00
2018-01-22T11:29:56.793Z,3780.00
2018-01-22T11:30:56.844Z,3788.00
2018-01-22T11:31:56.882Z,3696.00
2018-01-22T11:32:56.925Z,3600.00
2018-01-22T11:33:56.986Z,3444.00
2018-01-22T11:34:57.013Z,3212.00
2018-01-22T11:35:57.113Z,3064.00
2018-01-22T11:36:57.151Z,2948.00
2018-01-22T11:37:57.148Z,2784.00
2018-01-22T11:38:57.212Z,2732.00
2018-01-22T11:39:57.246Z,2840.00
2018-01-22T11:40:57.283Z,2996.00
2018-01-22T11:41:57.329Z,3252.00
2018-01-22T11:42:57.365Z,3512.00
2018-01-22T11:43:57.430Z,3652.00
2018-01-22T11:44:57.459Z,3596.00
2018-01-22T11:45:57.506Z,3456.00
2018-01-22T11:46:57.549Z,3352.00
2018-01-22T11:47:57.593Z,3440.00
2018-01-22T11:48:57.709Z,3640.00
2018-01-22T11:49:57.681Z,3848.00
2018-01-22T11:50:57.741Z,3996.00
2018-01-22T11:51:57.770Z,4056.00
2018-01-22T11:52:57.816Z,4248.00
2018-01-22T11:53:57.861Z,4496.00
2018-01-22T11:54:57.906Z,4664.00
2018-01-22T11:55:57.968Z,4888.00
2018-01-22T11:56:57.999Z,5092.00
2018-01-22T11:57:58.037Z,4620.00
2018-01-22T11:58:58.082Z,4208.00
2018-01-22T11:59:58.130Z,4072.00
2018-01-22T12:00:58.204Z,3944.00
2018-01-22T12:01:58.216Z,3904.00
2018-01-22T12:02:58.263Z,3876.00
2018-01-22T12:03:58.312Z,3812.00
2018-01-22T12:04:58.353Z,3740.00
2018-01-22T12:05:58.431Z,3844.00
2018-01-22T12:06:58.442Z,3968.00
2018-01-22T12:07:58.484Z,4092.00
2018-01-22T12:08:58.532Z,4184.00
2018-01-22T12:09:58.569Z,4232.00
2018-01-22T12:10:58.634Z,4184.00
2018-01-22T12:11:58.663Z,4020.00
2018-01-22T12:12:58.724Z,3844.00
2018-01-22T12:13:58.752Z,3688.00
2018-01-22T12:14:58.801Z,3496.00
2018-01-22T12:15:58.848Z,3320.00
2018-01-22T12:16:58.896Z,3348.00
2018-01-22T12:17:58.948Z,3616.00
2018-01-22T12:18:58.979Z,3928.00
2018-01-22T12:19:59.021Z,4092.00
2018-01-22T12:20:59.065Z,4112.00
2018-01-22T12:21:59.110Z,3984.00
2018-01-22T12:22:59.174Z,4340.00
2018-01-22T12:23:59.199Z,4448.00
2018-01-22T12:24:59.246Z,4216.00
2018-01-22T12:25:59.287Z,4140.00
2018-01-22T12:26:59.333Z,4204.00
2018-01-22T12:27:59.394Z,4336.00
2018-01-22T12:28:59.422Z,4172.00
2018-01-22T12:29:59.472Z,4028.00
2018-01-22T12:30:59.509Z,3760.00
2018-01-22T12:31:59.553Z,3376.00
2018-01-22T12:32:59.616Z,3092.00
2018-01-22T12:33:59.656Z,2896.00
2018-01-22T12:34:59.692Z,2728.00
2018-01-22T12:35:59.732Z,2748.00
2018-01-22T12:36:59.774Z,2812.00
2018-01-22T12:37:59.820Z,2968.00
2018-01-22T12:38:59.877Z,3052.00
2018-01-22T12:39:59.923Z,2936.00
2018-01-22T12:40:59.952Z,3060.00
2018-01-22T12:41:59.995Z,3200.00
2018-01-22T12:43:00.041Z,3460.00
2018-01-22T12:44:00.082Z,3880.00
2018-01-22T12:45:00.141Z,4068.00
2018-01-22T12:46:00.170Z,4248.00